createdAt,value
2019-02-20T00:02:39.005Z,14
2019-02-20T00:12:45.188Z,12
2019-02-20T00:22:52.375Z,12
2019-02-20T00:33:00.691Z,13
2019-02-20T00:43:08.844Z,13
2019-02-20T00:53:30.788Z,13
2019-02-20T01:03:35.940Z,12
2019-02-20T01:13:43.682Z,12
2019-02-20T01:23:50.375Z,13
2019-02-20T01:33:59.354Z,14
2019-02-20T01:44:06.632Z,14
2019-02-20T01:54:14.413Z,13
2019-02-20T02:04:22.154Z,16
2019-02-20T02:14:29.937Z,14
2019-02-20T02:24:39.152Z,15
2019-02-20T02:34:50.942Z,15
2019-02-20T02:45:00.456Z,10
2019-02-20T02:55:08.503Z,10
2019-02-20T03:05:17.711Z,11
2019-02-20T03:15:24.229Z,12
2019-02-20T03:25:30.927Z,11
2019-02-20T03:35:36.683Z,10
2019-02-20T03:45:46.073Z,8
2019-02-20T03:55:54.544Z,11
2019-02-20T04:06:02.552Z,13
2019-02-20T04:16:10.885Z,11
2019-02-20T04:26:17.569Z,11
2019-02-20T04:36:24.777Z,11
2019-02-20T04:46:35.296Z,11
2019-02-20T04:54:53.465Z,12
2019-02-20T05:04:59.921Z,15
2019-02-20T05:15:03.687Z,10
2019-02-20T05:25:10.627Z,11
2019-02-20T05:35:17.281Z,13
2019-02-20T05:45:25.462Z,12
2019-02-20T05:55:33.753Z,14
2019-02-20T06:05:40.181Z,13
2019-02-20T06:15:52.455Z,9
2019-02-20T06:26:03.434Z,13
2019-02-20T06:36:08.024Z,10
2019-02-20T06:46:16.340Z,11
2019-02-20T06:55:35.378Z,11
2019-02-20T07:05:41.920Z,10
2019-02-20T07:15:54.108Z,13
2019-02-20T07:25:59.728Z,10
2019-02-20T07:36:08.128Z,11
2019-02-20T07:46:15.685Z,12
2019-02-20T07:56:20.983Z,12
2019-02-20T08:06:29.633Z,13
2019-02-20T08:09:22.165Z,12
2019-02-20T08:19:28.716Z,15
2019-02-20T08:29:40.646Z,17
2019-02-20T08:39:44.846Z,13
2019-02-20T08:49:55.108Z,13
2019-02-20T08:53:09.679Z,14
2019-02-20T09:03:16.847Z,16
2019-02-20T09:07:49.225Z,19
2019-02-20T09:17:51.913Z,17
2019-02-20T09:28:02.154Z,88
2019-02-20T09:38:24.686Z,89
2019-02-20T09:48:28.094Z,23
2019-02-20T09:58:35.883Z,20
2019-02-20T10:00:53.387Z,20
2019-02-20T10:02:07.020Z,20
2019-02-20T10:12:12.265Z,19
2019-02-20T10:19:32.622Z,22
2019-02-20T10:22:47.364Z,21
2019-02-20T10:32:53.130Z,20
2019-02-20T10:43:04.583Z,19
2019-02-20T10:53:13.636Z,22
2019-02-20T11:03:18.813Z,21
2019-02-20T11:06:14.286Z,21
2019-02-20T11:16:18.781Z,19
2019-02-20T11:17:38.243Z,22
2019-02-20T11:27:40.566Z,20
2019-02-20T11:37:04.495Z,21
2019-02-20T11:39:14.591Z,23
2019-02-20T11:49:22.934Z,22
2019-02-20T11:53:39.361Z,37
2019-02-20T11:58:02.465Z,37
2019-02-20T12:08:02.606Z,30
2019-02-20T12:18:18.282Z,23
2019-02-20T12:18:56.945Z,32
2019-02-20T12:24:13.013Z,23
2019-02-20T12:25:56.702Z,38
2019-02-20T12:27:07.784Z,21
2019-02-20T12:37:14.519Z,22
2019-02-20T12:47:24.129Z,24
2019-02-20T12:57:24.586Z,27
2019-02-20T13:07:44.721Z,23
2019-02-20T13:17:53.308Z,23
2019-02-20T13:19:08.034Z,24
2019-02-20T13:26:05.371Z,35
2019-02-20T13:27:30.447Z,29
2019-02-20T13:30:18.285Z,25
2019-02-20T13:40:26.214Z,25
2019-02-20T13:50:34.782Z,23
2019-02-20T13:58:58.090Z,24
2019-02-20T14:09:01.808Z,22
2019-02-20T14:19:11.802Z,23
2019-02-20T14:21:30.178Z,23
2019-02-20T14:22:39.421Z,23
2019-02-20T14:32:49.711Z,22
2019-02-20T14:42:56.953Z,20
2019-02-20T14:47:16.950Z,23
2019-02-20T14:56:51.111Z,24
2019-02-20T14:59:16.893Z,24
2019-02-20T15:09:27.295Z,20
2019-02-20T15:10:36.427Z,21
2019-02-20T15:16:11.087Z,21
2019-02-20T15:26:12.811Z,20
2019-02-20T15:36:22.918Z,23
2019-02-20T15:38:52.803Z,21
2019-02-20T15:48:57.764Z,28
2019-02-20T15:53:16.795Z,23
2019-02-20T15:56:59.622Z,28
2019-02-20T16:07:00.385Z,27
2019-02-20T16:17:12.892Z,32
2019-02-20T16:27:15.503Z,57
2019-02-20T16:37:30.330Z,24
2019-02-20T16:47:35.551Z,29
2019-02-20T16:57:42.334Z,30
2019-02-20T17:07:53.193Z,36
2019-02-20T17:17:59.087Z,37
2019-02-20T17:25:20.960Z,39
2019-02-20T17:34:54.304Z,52
2019-02-20T17:41:33.151Z,50
2019-02-20T17:51:40.942Z,49
2019-02-20T18:01:51.541Z,36
2019-02-20T18:06:07.334Z,30
2019-02-20T18:16:14.935Z,28
2019-02-20T18:26:25.579Z,24
2019-02-20T18:29:39.931Z,37
2019-02-20T18:39:45.154Z,25
2019-02-20T18:49:55.167Z,27
2019-02-20T18:59:12.219Z,32
2019-02-20T19:00:43.325Z,30
2019-02-20T19:10:48.097Z,30
2019-02-20T19:20:55.227Z,31
2019-02-20T19:31:04.313Z,30
2019-02-20T19:35:20.725Z,32
2019-02-20T19:45:29.497Z,27
2019-02-20T19:55:39.661Z,27
2019-02-20T20:05:48.867Z,25
2019-02-20T20:15:56.547Z,27
2019-02-20T20:26:04.101Z,30
2019-02-20T20:36:12.841Z,30
2019-02-20T20:46:20.232Z,28
2019-02-20T20:56:26.435Z,28
2019-02-20T20:57:40.311Z,29
2019-02-20T20:59:53.648Z,37
2019-02-20T21:10:02.572Z,27
2019-02-20T21:20:13.387Z,20
2019-02-20T21:30:21.577Z,23
2019-02-20T21:40:27.212Z,21
2019-02-20T21:50:38.008Z,21
2019-02-20T22:00:47.042Z,20
2019-02-20T22:10:52.855Z,22
2019-02-20T22:20:59.483Z,19
2019-02-20T22:29:18.115Z,21
2019-02-20T22:30:33.370Z,21
2019-02-20T22:40:40.675Z,19
2019-02-20T22:50:48.920Z,19
2019-02-20T23:01:08.000Z,17
2019-02-20T23:11:16.509Z,20
2019-02-20T23:21:22.966Z,18
2019-02-20T23:31:29.827Z,19
2019-02-20T23:41:40.198Z,17
2019-02-20T23:51:47.221Z,14
